Weather observations for the past three days for
Placerville Airport
| Date | Time (pdt) | Wind (mph) | Vis. (mi.) | Weather | Sky Cond. | Temperature (ºF) | Relative Humidity | Wind Chill (°F) | Heat Index (°F) | Pressure | Precipitation (in) | ||||||
|---|---|---|---|---|---|---|---|---|---|---|---|---|---|---|---|---|---|
| Air | Dwpt | 6 hour | altimeter (in) | sea level (mb) | 1 hr | 3 hr | 6 hr | ||||||||||
| Max. | Min. | ||||||||||||||||
| 06 | 05:35 | Calm | 8.00 | Overcast | OVC021 | 50 | 50 | 100% | 30.13 | 0.0 | |||||||
| 06 | 05:15 | Calm | 0.50 | Overcast | BKN002 OVC021 | 50 | 50 | 100% | 30.13 | 0.0 | |||||||
| 06 | 04:55 | Calm | 1.00 | Overcast | BKN002 OVC021 | 50 | 50 | 100% | 30.13 | 0.0 | |||||||
| 06 | 04:35 | Calm | 0.50 | Overcast | OVC002 | 50 | 50 | 100% | 30.13 | 0.0 | |||||||
| 06 | 04:15 | Calm | 5.00 | Overcast | BKN002 OVC021 | 50 | 50 | 100% | 30.12 | 0.0 | |||||||
| 06 | 03:55 | Calm | 0.75 | Overcast | OVC002 | 50 | 50 | 100% | 30.12 | 0.0 | |||||||
| 06 | 03:35 | Calm | 0.25 | Overcast | OVC002 | 50 | 50 | 100% | 30.11 | 0.0 | |||||||
| 06 | 03:15 | Calm | 0.15 | Overcast | OVC002 | 50 | 50 | 100% | 30.11 | 0.0 | |||||||
| 06 | 02:55 | Calm | 0.15 | Overcast | OVC002 | 50 | 50 | 100% | 30.11 | 0.0 | |||||||
| 06 | 02:35 | Calm | 4.00 | Overcast | OVC002 | 50 | 50 | 100% | 30.1 | 0.0 | |||||||
| 06 | 02:15 | Calm | 2.00 | Overcast | OVC003 | 50 | 50 | 100% | 30.1 | 0.0 | |||||||
| 06 | 01:55 | Calm | 10.00 | Overcast | SCT004 OVC023 | 50 | 50 | 100% | 30.1 | 0.0 | |||||||
| 06 | 01:35 | Calm | 10.00 | Overcast | SCT005 OVC023 | 50 | 50 | 100% | 30.11 | 0.0 | |||||||
| 06 | 01:15 | Calm | 10.00 | Overcast | SCT006 OVC023 | 50 | 50 | 100% | 30.11 | 0.0 | |||||||
| 06 | 00:55 | Calm | 10.00 | Overcast | BKN007 OVC023 | 50 | 50 | 100% | 30.11 | 0.0 | |||||||
| 06 | 00:35 | Calm | 10.00 | Overcast | FEW010 OVC025 | 50 | 50 | 100% | 30.11 | 0.0 | |||||||
| 06 | 00:15 | Calm | 10.00 | Overcast | SCT012 OVC023 | 50 | 50 | 100% | 30.1 | 0.0 | |||||||
| 05 | 23:55 | Calm | 10.00 | Overcast | SCT010 SCT014 OVC025 | 50 | 50 | 100% | 30.1 | 0.0 | |||||||
| 05 | 23:35 | Calm | 10.00 | Overcast | OVC025 | 50 | 50 | 100% | 30.09 | 0.0 | |||||||
| 05 | 22:55 | Calm | 10.00 | Overcast | OVC025 | 50 | 50 | 100% | 30.08 | 0.0 | |||||||
| 05 | 22:35 | Calm | 9.00 | Overcast | OVC025 | 50 | 50 | 100% | 30.08 | 0.0 | |||||||
| 05 | 22:15 | Calm | 10.00 | Overcast | OVC025 | 50 | 50 | 100% | 30.07 | 0.0 | |||||||
| 05 | 21:55 | Calm | 10.00 | Overcast | OVC025 | 51.8 | 48.2 | 88% | 30.07 | 0.0 | |||||||
| 05 | 21:35 | Calm | 10.00 | Overcast | OVC025 | 51.8 | 48.2 | 88% | 30.07 | 0.0 | |||||||
| 05 | 21:15 | Calm | 10.00 | Overcast | OVC025 | 50 | 48.2 | 94% | 30.06 | 0.0 | |||||||
| 05 | 20:55 | Calm | 10.00 | Overcast | OVC025 | 50 | 50 | 100% | 30.05 | 0.0 | |||||||
| 05 | 20:35 | Calm | 10.00 | Overcast | OVC025 | 50 | 50 | 100% | 30.05 | 0.0 | |||||||
| 05 | 20:15 | Calm | 10.00 | Overcast | OVC023 | 50 | 50 | 100% | 30.04 | 0.0 | |||||||
| 05 | 19:55 | Calm | 10.00 | Overcast | OVC023 | 50 | 50 | 100% | 30.03 | 0.0 | |||||||
| 05 | 19:35 | Calm | 10.00 | Overcast | OVC023 | 50 | 50 | 100% | 30.02 | 0.0 | |||||||
| 05 | 19:15 | Calm | 10.00 | Overcast | OVC023 | 50 | 50 | 100% | 30.02 | 0.0 | |||||||
| 05 | 18:55 | Calm | 10.00 | Overcast | BKN013 OVC023 | 50 | 50 | 100% | 30.02 | 0.0 | |||||||
| 05 | 18:35 | Calm | 10.00 | Overcast | OVC013 | 50 | 50 | 100% | 30.02 | 0.0 | |||||||
| 05 | 18:15 | Calm | 10.00 | Overcast | OVC011 | 50 | 50 | 100% | 30.02 | 0.0 | |||||||
| 05 | 17:55 | Calm | 8.00 | Overcast | FEW002 OVC009 | 50 | 50 | 100% | 30.02 | 0.0 | |||||||
| 05 | 17:35 | Calm | 1.50 | Mostly Cloudy | BKN002 BKN009 | 50 | 50 | 100% | 30.01 | 0.0 | |||||||
| 05 | 17:15 | Calm | 0.50 | Overcast | OVC002 | 50 | 50 | 100% | 30.01 | 0.0 | |||||||
| 05 | 16:55 | Calm | 0.75 | Overcast | OVC002 | 50 | 50 | 100% | 30.01 | 0.0 | |||||||
| 05 | 16:35 | Calm | 0.50 | Mostly Cloudy | BKN002 | 50 | 50 | 100% | 30.01 | 0.0 | |||||||
| 05 | 16:15 | Calm | 0.50 | Mostly Cloudy | BKN002 | 50 | 50 | 100% | 30.01 | 0.0 | |||||||
| 05 | 15:55 | Calm | 0.15 | Overcast | OVC002 | 50 | 50 | 100% | 30.01 | 0.0 | |||||||
| 05 | 15:35 | Calm | 0.75 | Overcast | OVC002 | 50 | 50 | 100% | 30.01 | 0.0 | |||||||
| 05 | 15:15 | Calm | 10.00 | Overcast | FEW004 BKN008 OVC013 | 50 | 48.2 | 94% | 30.01 | 0.0 | |||||||
| 05 | 14:55 | Calm | 10.00 | Overcast | BKN008 OVC013 | 50 | 48.2 | 94% | 30.01 | 0.0 | |||||||
| 05 | 14:35 | Calm | 10.00 | Overcast | OVC008 | 50 | 48.2 | 94% | 30.01 | 0.0 | |||||||
| 05 | 14:15 | Calm | 10.00 | Mostly Cloudy | BKN008 | 50 | 48.2 | 94% | 30.01 | 0.0 | |||||||
| 05 | 13:55 | Calm | 10.00 | Overcast | BKN008 OVC013 | 50 | 48.2 | 94% | 30.01 | 0.0 | |||||||
| 05 | 13:35 | Calm | 10.00 | Overcast | SCT006 OVC013 | 50 | 48.2 | 94% | 30.01 | 0.0 | |||||||
| 05 | 13:15 | Calm | 10.00 | Overcast | BKN005 BKN009 OVC013 | 50 | 48.2 | 94% | 30.01 | 0.0 | |||||||
| 05 | 12:55 | Calm | 10.00 | Overcast | BKN005 OVC013 | 50 | 48.2 | 94% | 30 | 0.0 | |||||||
| 05 | 12:35 | Calm | 10.00 | Overcast | BKN005 OVC013 | 50 | 48.2 | 94% | 30.01 | 0.0 | |||||||
| 05 | 12:15 | Calm | 9.00 | Mostly Cloudy | SCT004 BKN013 | 50 | 48.2 | 94% | 30.01 | 0.0 | |||||||
| 05 | 11:55 | Calm | 8.00 | Mostly Cloudy | SCT004 BKN009 BKN013 | 50 | 48.2 | 94% | 30 | 0.0 | |||||||
| 05 | 11:35 | Calm | 6.00 | Mostly Cloudy | SCT005 BKN010 | 48.2 | 48.2 | 100% | 30 | 0.0 | |||||||
| 05 | 11:15 | Calm | 10.00 | Overcast | BKN004 OVC010 | 48.2 | 48.2 | 100% | 30 | 0.0 | |||||||
| 05 | 10:55 | Calm | 10.00 | Overcast | BKN004 OVC008 | 48.2 | 48.2 | 100% | 30 | 0.0 | |||||||
| 05 | 10:35 | Calm | 10.00 | Overcast | BKN006 BKN011 OVC019 | 48.2 | 46.4 | 94% | 29.99 | 0.0 | |||||||
| 05 | 10:15 | Calm | 10.00 | Overcast | BKN005 OVC019 | 48.2 | 46.4 | 94% | 29.98 | 0.0 | |||||||
| 05 | 09:55 | Calm | 10.00 | Overcast | BKN004 BKN013 OVC020 | 48.2 | 48.2 | 100% | 29.99 | 0.0 | |||||||
| 05 | 09:35 | Calm | 9.00 | Overcast | SCT005 BKN017 OVC024 | 48.2 | 48.2 | 100% | 29.98 | 0.0 | |||||||
| 05 | 09:15 | Calm | 10.00 | Mostly Cloudy | FEW006 SCT013 BKN024 | 48.2 | 46.4 | 94% | 29.98 | 0.0 | |||||||
| 05 | 08:55 | Calm | 10.00 | Overcast | FEW006 SCT025 OVC041 | 50 | 46.4 | 88% | 29.98 | 0.0 | |||||||
| 05 | 08:35 | Calm | 10.00 | Overcast | FEW006 BKN023 OVC032 | 48.2 | 46.4 | 94% | 29.98 | 0.0 | |||||||
| 05 | 08:15 | Calm | 10.00 | Overcast | OVC023 | 48.2 | 46.4 | 94% | 29.98 | 0.0 | |||||||
| 05 | 07:55 | Calm | 10.00 | Overcast | OVC023 | 46.4 | 46.4 | 100% | 29.97 | 0.0 | |||||||
| 05 | 07:35 | Calm | 10.00 | Overcast | OVC023 | 46.4 | 46.4 | 100% | 29.97 | 0.0 | |||||||
| 05 | 07:15 | Calm | 10.00 | Overcast | OVC023 | 46.4 | 46.4 | 100% | 29.96 | 0.0 | |||||||
| 05 | 06:55 | Calm | 10.00 | Overcast | OVC023 | 46.4 | 44.6 | 93% | 29.96 | 0.0 | |||||||
| 05 | 06:35 | Calm | 10.00 | Overcast | OVC025 | 44.6 | 44.6 | 100% | 29.95 | 0.0 | |||||||
| 05 | 06:15 | Calm | 10.00 | Overcast | OVC025 | 44.6 | 44.6 | 100% | 29.95 | 0.0 | |||||||
| 05 | 05:55 | Calm | 10.00 | Overcast | OVC023 | 44.6 | 44.6 | 100% | 29.95 | 0.0 | |||||||
| 05 | 05:35 | Calm | 10.00 | Overcast | OVC021 | 44.6 | 44.6 | 100% | 29.96 | 0.0 | |||||||
| 05 | 05:15 | Calm | 7.00 | Overcast | OVC019 | 46.4 | 46.4 | 100% | 29.95 | 0.0 | |||||||
| 05 | 04:55 | Calm | 10.00 | Overcast | OVC021 | 46.4 | 46.4 | 100% | 29.95 | 0.0 | |||||||
| 05 | 04:35 | Calm | 10.00 | Overcast | OVC023 | 46.4 | 46.4 | 100% | 29.95 | 0.0 | |||||||
| 05 | 04:15 | Calm | 10.00 | Overcast | BKN025 OVC030 | 46.4 | 46.4 | 100% | 29.95 | 0.0 | |||||||
| 05 | 03:55 | Calm | 10.00 | Overcast | OVC025 | 44.6 | 44.6 | 100% | 29.95 | 0.0 | |||||||
| 05 | 03:35 | Calm | 10.00 | Overcast | SCT025 OVC035 | 44.6 | 44.6 | 100% | 29.96 | 0.0 | |||||||
| 05 | 03:15 | Calm | 8.00 | Overcast | OVC035 | 44.6 | 44.6 | 100% | 29.95 | 0.0 | |||||||
| 05 | 02:55 | Calm | 10.00 | Overcast | SCT027 OVC037 | 44.6 | 44.6 | 100% | 29.96 | 0.0 | 0.01 | ||||||
| 05 | 02:35 | Calm | 1.00 | Overcast | BKN012 OVC027 | 46.4 | 46.4 | 100% | 29.97 | 0.0 | 0.01 | ||||||
| 05 | 02:15 | Calm | 1.50 | Overcast | OVC027 | 46.4 | 46.4 | 100% | 29.97 | 0.0 | 0.01 | ||||||
| 05 | 01:55 | Calm | 7.00 | Overcast | OVC027 | 46.4 | 44.6 | 93% | 29.97 | 0.0 | 0.02 | ||||||
| 05 | 01:35 | Calm | 9.00 | Overcast | OVC027 | 46.4 | 44.6 | 93% | 29.97 | 0.0 | 0.02 | ||||||
| 05 | 01:15 | Calm | 10.00 | Overcast | FEW008 OVC027 | 46.4 | 46.4 | 100% | 29.98 | 0.0 | |||||||
| 05 | 00:55 | Calm | 5.00 | Overcast | FEW002 SCT008 OVC027 | 44.6 | 44.6 | 100% | 29.99 | 0.0 | |||||||
| 05 | 00:35 | Calm | 1.75 | Overcast | OVC029 | 44.6 | 44.6 | 100% | 29.98 | 0.0 | |||||||
| 05 | 00:15 | Calm | 0.50 | Overcast | OVC029 | 46.4 | 46.4 | 100% | 29.98 | 0.0 | |||||||
| 04 | 23:55 | Calm | 8.00 | Overcast | OVC029 | 44.6 | 44.6 | 100% | 29.98 | 0.0 | 0.01 | ||||||
| 04 | 23:35 | Calm | 8.00 | Overcast | FEW001 FEW011 OVC029 | 44.6 | 44.6 | 100% | 29.98 | 0.0 | |||||||
| 04 | 23:15 | Calm | 0.50 | Overcast | BKN001 BKN030 OVC060 | 46.4 | 46.4 | 100% | 29.99 | 0.0 | |||||||
| 04 | 22:55 | Calm | 10.00 | Overcast | SCT046 BKN060 OVC075 | 46.4 | 44.6 | 93% | 29.98 | 0.0 | 0.01 | ||||||
| 04 | 22:35 | Calm | 9.00 | Overcast | FEW034 BKN060 OVC075 | 46.4 | 44.6 | 93% | 29.98 | 0.0 | 0.01 | ||||||
| 04 | 22:15 | Calm | 5.00 | Overcast | SCT031 SCT037 OVC050 | 46.4 | 44.6 | 93% | 29.98 | 0.0 | 0.01 | ||||||
| 04 | 21:35 | Calm | 10.00 | Mostly Cloudy | FEW024 SCT034 BKN055 | 44.6 | 44.6 | 100% | 29.99 | 0.0 | 0.01 | ||||||
| 04 | 21:15 | Calm | 6.00 | Overcast | FEW002 BKN024 OVC039 | 46.4 | 46.4 | 100% | 29.99 | 0.0 | 0.01 | ||||||
| 04 | 20:55 | Calm | 1.25 | Overcast | BKN002 OVC024 | 46.4 | 46.4 | 100% | 29.99 | 0.0 | 0.07 | ||||||
| 04 | 20:35 | Calm | 0.25 | Overcast | OVC002 | 46.4 | 46.4 | 100% | 29.99 | 0.0 | 0.05 | ||||||
| 04 | 20:15 | Calm | 1.50 | Overcast | SCT001 BKN020 OVC048 | 46.4 | 46.4 | 100% | 29.98 | 0.0 | 0.02 | ||||||
| 04 | 19:55 | Calm | 0.50 | Overcast | BKN001 BKN021 OVC028 | 46.4 | 46.4 | 100% | 29.98 | 0.0 | 0.09 | ||||||
| 04 | 19:35 | Calm | 4.00 | Overcast | BKN021 BKN032 OVC050 | 46.4 | 44.6 | 93% | 29.99 | 0.0 | 0.06 | ||||||
| 04 | 19:15 | Calm | 5.00 | Overcast | BKN019 OVC050 | 46.4 | 46.4 | 100% | 29.97 | 0.0 | 0.02 | ||||||
| 04 | 18:55 | Calm | 6.00 | Overcast | FEW019 BKN044 OVC050 | 46.4 | 46.4 | 100% | 29.98 | 0.0 | 0.11 | ||||||
| 04 | 18:35 | Calm | 6.00 | Overcast | BKN020 OVC044 | 46.4 | 46.4 | 100% | 29.98 | 0.0 | 0.08 | ||||||
| 04 | 18:15 | Calm | 4.00 | Overcast | BKN018 OVC060 | 46.4 | 46.4 | 100% | 29.99 | 0.0 | 0.04 | ||||||
| 04 | 17:55 | NE 3 | 9.00 | Mostly Cloudy | SCT020 BKN060 | 46.4 | 46.4 | 100% | 29.98 | 0.0 | 0.07 | ||||||
| 04 | 17:35 | Calm | 6.00 | Partly Cloudy | FEW040 SCT060 | 46.4 | 46.4 | 100% | 29.99 | 0.0 | 0.06 | ||||||
| 04 | 17:15 | Calm | 6.00 | Partly Cloudy | FEW040 SCT049 | 46.4 | 46.4 | 100% | 29.99 | 0.0 | 0.03 | ||||||
| 04 | 16:55 | Calm | 5.00 | Mostly Cloudy | SCT003 SCT040 BKN049 | 46.4 | 46.4 | 100% | 29.99 | 0.0 | 0.12 | ||||||
| 04 | 16:35 | Calm | 2.50 | Overcast | BKN003 BKN023 OVC046 | 46.4 | 46.4 | 100% | 30 | 0.0 | 0.07 | ||||||
| 04 | 16:15 | Calm | 2.50 | Overcast | SCT002 BKN017 OVC022 | 46.4 | 46.4 | 100% | 30 | 0.0 | 0.03 | ||||||
| 04 | 15:55 | Calm | 3.00 | Overcast | SCT003 SCT010 OVC017 | 46.4 | 46.4 | 100% | 30 | 0.0 | 0.08 | ||||||
| 04 | 15:35 | Calm | 3.00 | Overcast | SCT004 BKN010 OVC019 | 46.4 | 46.4 | 100% | 30 | 0.0 | 0.04 | ||||||
| 04 | 15:15 | Calm | 4.00 | Overcast | SCT004 BKN018 OVC025 | 46.4 | 46.4 | 100% | 30 | 0.0 | 0.01 | ||||||
| 04 | 14:55 | Calm | 6.00 | Overcast | BKN004 OVC025 | 46.4 | 46.4 | 100% | 30 | 0.0 | 0.04 | ||||||
| 04 | 14:35 | Calm | 0.25 | Overcast | OVC003 | 46.4 | 46.4 | 100% | 30 | 0.0 | 0.03 | ||||||
| 04 | 14:15 | Calm | 5.00 | Overcast | SCT003 OVC020 | 46.4 | 46.4 | 100% | 30 | 0.0 | 0.01 | ||||||
| 04 | 13:35 | Calm | 0.25 | Overcast | OVC002 | 46.4 | 46.4 | 100% | 30 | 0.0 | |||||||
| 04 | 13:15 | Calm | 0.25 | Overcast | OVC002 | 46.4 | 46.4 | 100% | 29.99 | 0.0 | |||||||
| 04 | 12:55 | Calm | 0.15 | Overcast | OVC004 | 46.4 | 46.4 | 100% | 29.99 | 0.0 | 0.08 | ||||||
| 04 | 12:35 | Calm | 4.00 | Mostly Cloudy | SCT002 BKN016 | 46.4 | 46.4 | 100% | 29.99 | 0.0 | 0.07 | ||||||
| 04 | 12:15 | Calm | 0.25 | Overcast | OVC002 | 46.4 | 46.4 | 100% | 30 | 0.0 | 0.04 | ||||||
| 04 | 11:55 | Calm | 3.00 | Overcast | FEW003 BKN027 OVC036 | 46.4 | 46.4 | 100% | 30 | 0.0 | 0.02 | ||||||
| 04 | 11:35 | Calm | 6.00 | Overcast | BKN021 OVC027 | 46.4 | 46.4 | 100% | 30 | 0.0 | 0.01 | ||||||
| 04 | 11:15 | Calm | 9.00 | Overcast | FEW004 BKN021 OVC027 | 46.4 | 46.4 | 100% | 30.01 | 0.0 | |||||||
| 04 | 10:55 | Calm | 0.75 | Overcast | OVC002 | 46.4 | 46.4 | 100% | 30 | 0.0 | |||||||
| 04 | 10:35 | Calm | 0.50 | Overcast | OVC002 | 46.4 | 46.4 | 100% | 30 | 0.0 | |||||||
| 04 | 10:15 | Calm | 5.00 | Overcast | BKN002 OVC026 | 46.4 | 46.4 | 100% | 29.99 | 0.0 | |||||||
| 04 | 09:55 | Calm | 3.00 | Mostly Cloudy | SCT002 BKN026 | 46.4 | 46.4 | 100% | 29.99 | 0.0 | 0.06 | ||||||
| 04 | 09:35 | Calm | 5.00 | Overcast | SCT017 OVC026 | 46.4 | 46.4 | 100% | 29.99 | 0.0 | 0.05 | ||||||
| 04 | 09:15 | Calm | 2.00 | Overcast | OVC017 | 46.4 | 46.4 | 100% | 29.99 | 0.0 | 0.04 | ||||||
| 04 | 08:55 | Calm | 10.00 | Overcast | OVC021 | 46.4 | 42.8 | 87% | 29.99 | 0.0 | |||||||
| 04 | 08:35 | Calm | 10.00 | Overcast | OVC021 | 46.4 | 42.8 | 87% | 29.99 | 0.0 | |||||||
| 04 | 08:15 | Calm | 10.00 | Overcast | FEW004 OVC021 | 46.4 | 46.4 | 100% | 29.98 | 0.0 | |||||||
| 04 | 07:55 | Calm | 10.00 | Overcast | FEW004 OVC021 | 48.2 | 46.4 | 94% | 29.98 | 0.0 | |||||||
| 04 | 07:35 | Calm | 10.00 | Overcast | OVC021 | 48.2 | 44.6 | 87% | 29.97 | 0.0 | |||||||
| 04 | 07:15 | Calm | 10.00 | Overcast | OVC019 | 46.4 | 42.8 | 87% | 29.97 | 0.0 | |||||||
| 04 | 06:55 | Calm | 10.00 | Overcast | OVC019 | 46.4 | 44.6 | 93% | 29.97 | 0.0 | |||||||
| 04 | 06:35 | Calm | 10.00 | Overcast | OVC019 | 46.4 | 44.6 | 93% | 29.96 | 0.0 | |||||||
| 04 | 06:15 | Calm | 10.00 | Overcast | OVC019 | 46.4 | 46.4 | 100% | 29.96 | 0.0 | |||||||
| 04 | 05:55 | Calm | 10.00 | Overcast | OVC019 | 46.4 | 46.4 | 100% | 29.96 | 0.0 | |||||||
| 04 | 05:35 | Calm | 10.00 | Overcast | OVC019 | 46.4 | 44.6 | 93% | 29.96 | 0.0 | |||||||
| 04 | 05:15 | Calm | 10.00 | Overcast | OVC019 | 46.4 | 44.6 | 93% | 29.95 | 0.0 | |||||||
| 04 | 04:55 | Calm | 10.00 | Overcast | OVC019 | 46.4 | 44.6 | 93% | 29.95 | 0.0 | |||||||
| 04 | 04:35 | Calm | 10.00 | Overcast | OVC019 | 46.4 | 44.6 | 93% | 29.96 | 0.0 | |||||||
| 04 | 04:15 | Calm | 10.00 | Overcast | OVC019 | 46.4 | 44.6 | 93% | 29.96 | 0.0 | |||||||
| 04 | 03:55 | Calm | 10.00 | Overcast | OVC019 | 46.4 | 44.6 | 93% | 29.95 | 0.0 | |||||||
| 04 | 03:35 | Calm | 10.00 | Overcast | OVC019 | 46.4 | 44.6 | 93% | 29.95 | 0.0 | |||||||
| 04 | 03:15 | Calm | 10.00 | Overcast | OVC017 | 46.4 | 44.6 | 93% | 29.96 | 0.0 | |||||||
| 04 | 02:55 | Calm | 10.00 | Overcast | OVC015 | 46.4 | 42.8 | 87% | 29.95 | 0.0 | |||||||
| 04 | 02:35 | Calm | 10.00 | Overcast | OVC015 | 46.4 | 42.8 | 87% | 29.95 | 0.0 | |||||||
| 04 | 02:15 | Calm | 10.00 | Overcast | OVC013 | 46.4 | 44.6 | 93% | 29.96 | 0.0 | |||||||
| 04 | 01:55 | Calm | 10.00 | Overcast | OVC013 | 46.4 | 46.4 | 100% | 29.97 | 0.0 | |||||||
| 04 | 01:35 | Calm | 10.00 | Overcast | OVC011 | 46.4 | 46.4 | 100% | 29.95 | 0.0 | |||||||
| 04 | 01:15 | Calm | 10.00 | Overcast | OVC011 | 48.2 | 46.4 | 94% | 29.96 | 0.0 | |||||||
| 04 | 00:55 | Calm | 10.00 | Overcast | BKN011 OVC014 | 48.2 | 44.6 | 87% | 29.96 | 0.0 | |||||||
| 04 | 00:35 | Calm | 10.00 | Overcast | OVC011 | 48.2 | 44.6 | 87% | 29.96 | 0.0 | |||||||
| 04 | 00:15 | Calm | 10.00 | Overcast | OVC011 | 48.2 | 46.4 | 94% | 29.97 | 0.0 | |||||||
| 03 | 23:55 | Calm | 10.00 | Overcast | OVC011 | 48.2 | 44.6 | 87% | 29.97 | 0.0 | |||||||
| 03 | 23:35 | Calm | 10.00 | Overcast | OVC013 | 48.2 | 46.4 | 94% | 29.97 | 0.0 | |||||||
| 03 | 23:15 | Calm | 10.00 | Overcast | BKN015 BKN024 OVC032 | 48.2 | 46.4 | 94% | 29.97 | 0.0 | |||||||
| 03 | 22:55 | Calm | 10.00 | Overcast | FEW017 BKN026 OVC032 | 50 | 46.4 | 88% | 29.97 | 0.0 | |||||||
| 03 | 22:35 | Calm | 10.00 | Overcast | SCT017 OVC026 | 50 | 46.4 | 88% | 29.97 | 0.0 | |||||||
| 03 | 22:15 | Calm | 10.00 | Overcast | BKN015 OVC024 | 50 | 46.4 | 88% | 29.97 | 0.0 | |||||||
| 03 | 21:55 | Calm | 10.00 | Overcast | OVC015 | 50 | 46.4 | 88% | 29.97 | 0.0 | |||||||
| 03 | 21:35 | Calm | 10.00 | Overcast | OVC015 | 50 | 44.6 | 82% | 29.96 | 0.0 | |||||||
| 03 | 21:15 | E 6 | 10.00 | Overcast | OVC013 | 50 | 44.6 | 82% | 48 | 29.95 | 0.0 | ||||||
| 03 | 20:55 | Calm | 10.00 | Overcast | OVC013 | 50 | 46.4 | 88% | 29.95 | 0.0 | |||||||
| 03 | 20:35 | Calm | 10.00 | Overcast | OVC015 | 51.8 | 46.4 | 82% | 29.94 | 0.0 | |||||||
| 03 | 20:15 | Calm | 10.00 | Overcast | OVC015 | 53.6 | 48.2 | 82% | 29.94 | 0.0 | |||||||
| 03 | 19:55 | Calm | 10.00 | Overcast | OVC015 | 53.6 | 48.2 | 82% | 29.93 | 0.0 | |||||||
| 03 | 19:35 | Calm | 10.00 | Overcast | OVC013 | 53.6 | 48.2 | 82% | 29.93 | 0.0 | |||||||
| 03 | 19:15 | Calm | 10.00 | Overcast | OVC013 | 53.6 | 48.2 | 82% | 29.92 | 0.0 | |||||||
| 03 | 18:55 | Calm | 10.00 | Overcast | OVC013 | 53.6 | 48.2 | 82% | 29.92 | 0.0 | |||||||
| 03 | 18:35 | Calm | 10.00 | Overcast | OVC013 | 53.6 | 48.2 | 82% | 29.91 | 0.0 | |||||||
| 03 | 18:15 | Calm | 10.00 | Overcast | OVC015 | 53.6 | 48.2 | 82% | 29.91 | 0.0 | |||||||
| 03 | 17:55 | Calm | 10.00 | Overcast | OVC015 | 53.6 | 48.2 | 82% | 29.91 | 0.0 | |||||||
| 03 | 17:35 | Calm | 10.00 | Overcast | OVC015 | 55.4 | 48.2 | 77% | 29.91 | 0.0 | |||||||
| 03 | 17:15 | Calm | 10.00 | Overcast | OVC013 | 55.4 | 48.2 | 77% | 29.91 | 0.0 | |||||||
| 03 | 16:55 | Calm | 10.00 | Overcast | OVC013 | 55.4 | 48.2 | 77% | 29.91 | 0.0 | |||||||
| 03 | 16:35 | Calm | 10.00 | Overcast | OVC013 | 53.6 | 48.2 | 82% | 29.91 | 0.0 | |||||||
| 03 | 16:15 | Calm | 10.00 | Overcast | OVC013 | 53.6 | 46.4 | 77% | 29.92 | 0.0 | |||||||
| 03 | 15:55 | Calm | 10.00 | Overcast | OVC013 | 53.6 | 48.2 | 82% | 29.92 | 0.0 | |||||||
| 03 | 15:35 | Calm | 10.00 | Overcast | OVC013 | 53.6 | 48.2 | 82% | 29.92 | 0.0 | |||||||
| 03 | 15:15 | Calm | 10.00 | Overcast | OVC013 | 51.8 | 48.2 | 88% | 29.92 | 0.0 | |||||||
| 03 | 14:55 | Calm | 10.00 | Mostly Cloudy | BKN013 | 51.8 | 48.2 | 88% | 29.92 | 0.0 | |||||||
| 03 | 14:35 | Calm | 10.00 | Mostly Cloudy | BKN013 | 51.8 | 46.4 | 82% | 29.92 | 0.0 | |||||||
| 03 | 14:15 | E 6 | 10.00 | Mostly Cloudy | BKN013 | 53.6 | 48.2 | 82% | 29.92 | 0.0 | |||||||
| 03 | 13:55 | E 6 | 10.00 | A Few Clouds | FEW013 FEW100 | 53.6 | 48.2 | 82% | 29.93 | 0.0 | |||||||
| 03 | 13:35 | Calm | 10.00 | Partly Cloudy | FEW013 SCT100 | 53.6 | 48.2 | 82% | 29.93 | 0.0 | |||||||
| 03 | 13:15 | Calm | 10.00 | Partly Cloudy | FEW013 SCT095 | 55.4 | 48.2 | 77% | 29.92 | 0.0 | |||||||
| 03 | 12:55 | Calm | 9.00 | Partly Cloudy | SCT095 | 55.4 | 48.2 | 77% | 29.92 | 0.0 | |||||||
| 03 | 12:35 | E 7 | 10.00 | Partly Cloudy | FEW013 SCT095 | 57.2 | 48.2 | 72% | 29.92 | 0.0 | |||||||
| 03 | 11:55 | E 5 | 10.00 | Fair | CLR | 55.4 | 48.2 | 77% | 29.92 | 0.0 | |||||||
| 03 | 11:35 | E 6 | 10.00 | A Few Clouds | FEW100 | 53.6 | 48.2 | 82% | 29.93 | 0.0 | |||||||
| 03 | 11:15 | Calm | 10.00 | A Few Clouds | FEW100 | 55.4 | 48.2 | 77% | 29.92 | 0.0 | |||||||
| 03 | 10:55 | E 3 | 10.00 | Fair | CLR | 55.4 | 48.2 | 77% | 29.92 | 0.0 | |||||||
| 03 | 10:35 | Calm | 10.00 | Fair | CLR | 53.6 | 48.2 | 82% | 29.92 | 0.0 | |||||||
| 03 | 10:15 | E 5 | 10.00 | Fair | CLR | 53.6 | 46.4 | 77% | 29.91 | 0.0 | |||||||
| 03 | 09:55 | Calm | 10.00 | Fair | CLR | 50 | 44.6 | 82% | 29.91 | 0.0 | |||||||
| 03 | 09:35 | Calm | 10.00 | Partly Cloudy | FEW055 SCT080 SCT100 | 48.2 | 44.6 | 87% | 29.9 | 0.0 | |||||||
| 03 | 09:15 | Calm | 10.00 | A Few Clouds | FEW008 FEW100 | 50 | 46.4 | 88% | 29.92 | 0.0 | |||||||
| 03 | 08:55 | Calm | 10.00 | A Few Clouds | FEW008 | 48.2 | 46.4 | 94% | 29.91 | 0.0 | |||||||
| 03 | 08:35 | Calm | 9.00 | A Few Clouds | FEW003 FEW110 | 48.2 | 46.4 | 94% | 29.9 | 0.0 | |||||||
| 03 | 08:15 | E 8 | 10.00 | Partly Cloudy | FEW003 SCT110 | 48.2 | 46.4 | 94% | 45 | 29.9 | 0.0 | ||||||
| 03 | 07:55 | Calm | 10.00 | Fair | CLR | 48.2 | 48.2 | 100% | 29.89 | 0.0 | |||||||
| 03 | 07:35 | Calm | 0.15 | Sky Obscured | VV000 | 48.2 | 48.2 | 100% | 29.88 | 0.0 | |||||||
| 03 | 07:15 | Calm | 0.15 | Overcast | BKN003 OVC120 | 48.2 | 48.2 | 100% | 29.87 | 0.0 | |||||||
| 03 | 06:55 | Calm | 8.00 | Mostly Cloudy | BKN120 | 50 | 50 | 100% | 29.86 | 0.0 | |||||||
| 03 | 06:35 | Calm | 5.00 | Mostly Cloudy | SCT002 BKN120 | 50 | 50 | 100% | 29.86 | 0.0 | |||||||
| 03 | 06:15 | Calm | 0.15 | Overcast | OVC001 | 50 | 50 | 100% | 29.85 | 0.0 | |||||||
| 03 | 05:55 | Calm | 0.15 | Overcast | OVC001 | 50 | 50 | 100% | 29.85 | 0.0 | |||||||
| Date | Time (pdt) | Wind (mph) | Vis. (mi.) | Weather | Sky Cond. | Air | Dwpt | Max. | Min. | Relative Humidity | Wind Chill (°F) | Heat Index (°F) | altimeter (in) | sea level (mb) | 1 hr | 3 hr | 6 hr |
| 6 hour | |||||||||||||||||
| Temperature (ºF) | Pressure | Precipitation (in) | |||||||||||||||